Time;durP1;ratioP1;P1;durP2;ratioP2;P2;SDS_P1;SDS_P2;PMS_P1;PMS_P2;Temp;Humidity;BMP_temperature;BMP_pressure;BME280_temperature;BME280_humidity;BME280_pressure;Samples;Min_cycle;Max_cycle;Signal;HPM_P1;HPM_P2
2022/10/10 04:32:21;;;;;;;10.63;5.40;;;;;;;6.95;100.00;101290.16;6619729;26;125697;31
2022/10/10 04:39:10;;;;;;;9.85;4.68;;;;;;;6.41;100.00;101286.78;6623011;26;20044;-89
2022/10/10 04:42:13;;;;;;;8.63;4.62;;;;;;;6.42;100.00;101291.16;6621059;26;35206;-88
2022/10/10 04:45:32;;;;;;;7.68;4.47;;;;;;;6.42;100.00;101288.53;6623583;26;35060;-88
2022/10/10 04:48:39;;;;;;;6.45;5.00;;;;;;;6.41;100.00;101289.44;6623357;26;34944;-89
2022/10/10 04:51:41;;;;;;;8.73;5.03;;;;;;;6.39;100.00;101291.19;6629928;27;35196;-89
2022/10/10 04:54:44;;;;;;;6.62;4.50;;;;;;;6.39;100.00;101296.47;6628258;27;34492;-89
2022/10/10 04:57:47;;;;;;;8.68;4.53;;;;;;;6.42;100.00;101293.78;6630856;26;34666;-89
2022/10/10 05:00:51;;;;;;;10.05;4.57;;;;;;;6.41;100.00;101291.19;6629626;26;35094;-89
2022/10/10 05:03:54;;;;;;;10.70;4.60;;;;;;;6.45;100.00;101300.78;6630742;27;36719;-89
2022/10/10 05:06:57;;;;;;;8.70;4.62;;;;;;;6.50;100.00;101300.69;6630603;27;33716;-89
2022/10/10 05:10:00;;;;;;;9.80;4.75;;;;;;;6.59;100.00;101293.47;6629943;27;34309;-89
2022/10/10 05:13:03;;;;;;;9.05;4.37;;;;;;;6.57;100.00;101292.66;6630740;27;34952;-89
2022/10/10 05:16:05;;;;;;;10.20;4.50;;;;;;;6.58;100.00;101294.37;6611627;27;33832;-89
2022/10/10 05:19:08;;;;;;;7.72;4.65;;;;;;;6.61;100.00;101296.94;6613523;26;32634;-89
2022/10/10 05:22:11;;;;;;;5.85;4.28;;;;;;;6.60;100.00;101299.62;6634290;26;35260;-88
2022/10/10 05:25:13;;;;;;;6.57;4.70;;;;;;;6.62;100.00;101300.47;6633678;26;34294;-88
2022/10/10 05:28:16;;;;;;;7.93;4.55;;;;;;;6.69;100.00;101299.44;6605161;27;34128;-89
2022/10/10 05:31:19;;;;;;;7.55;4.62;;;;;;;6.72;100.00;101302.03;6625186;26;34396;-90
2022/10/10 05:34:22;;;;;;;7.62;4.65;;;;;;;6.71;100.00;101297.69;6617155;26;35267;-88
2022/10/10 05:37:24;;;;;;;9.57;5.15;;;;;;;6.78;100.00;101301.03;6619019;27;34873;-88
2022/10/10 05:40:29;;;;;;;7.18;4.93;;;;;;;6.79;100.00;101305.41;6608173;27;33274;-89
2022/10/10 05:43:32;;;;;;;11.15;5.05;;;;;;;6.85;100.00;101310.56;6604502;27;33239;-89
2022/10/10 05:46:34;;;;;;;7.55;4.60;;;;;;;6.95;100.00;101308.63;6625423;27;34228;-89
2022/10/10 05:49:37;;;;;;;7.82;5.00;;;;;;;7.02;100.00;101309.38;6626309;27;35186;-88
2022/10/10 05:52:39;;;;;;;11.30;4.82;;;;;;;7.07;100.00;101304.91;6606223;27;33850;-88
2022/10/10 05:55:56;;;;;;;8.32;4.43;;;;;;;7.19;100.00;101314.31;6627591;26;35306;-90
2022/10/10 05:58:59;;;;;;;5.80;4.62;;;;;;;7.35;100.00;101316.66;6627758;26;35397;-89
2022/10/10 06:02:01;;;;;;;9.30;4.65;;;;;;;7.39;100.00;101323.62;6627870;26;36621;-89
2022/10/10 06:05:05;;;;;;;10.15;4.57;;;;;;;7.48;100.00;101318.13;6628156;26;35173;-89
2022/10/10 06:08:08;;;;;;;9.95;5.18;;;;;;;7.59;100.00;101317.88;6627626;27;34385;-89
2022/10/10 06:11:16;;;;;;;13.55;4.90;;;;;;;7.67;100.00;101317.72;6617797;26;34301;-88
2022/10/10 06:14:18;;;;;;;12.02;5.00;;;;;;;7.79;100.00;101327.12;6607141;27;32858;-88
2022/10/10 06:17:21;;;;;;;9.60;5.05;;;;;;;7.85;100.00;101315.56;6605639;27;32348;-89
2022/10/10 06:20:23;;;;;;;10.00;5.07;;;;;;;7.97;100.00;101312.63;6622981;27;35318;-88
2022/10/10 06:23:27;;;;;;;7.93;5.15;;;;;;;8.09;100.00;101317.63;6624092;27;35060;-87
2022/10/10 06:26:32;;;;;;;8.10;5.25;;;;;;;8.14;100.00;101314.84;6623246;27;34297;-87
2022/10/10 06:29:35;;;;;;;9.60;5.75;;;;;;;8.26;100.00;101316.34;6623983;27;35156;-87
2022/10/10 06:32:38;;;;;;;8.18;5.12;;;;;;;8.38;100.00;101311.63;6623944;27;35330;-88
2022/10/10 06:35:42;;;;;;;13.35;5.60;;;;;;;8.49;100.00;101309.59;6625005;26;34879;-87
2022/10/10 06:38:45;;;;;;;7.40;4.57;;;;;;;8.60;100.00;101304.91;6625518;27;33862;-87
2022/10/10 06:41:48;;;;;;;11.57;5.28;;;;;;;8.68;100.00;101303.84;6623599;27;34892;-87
2022/10/10 06:44:52;;;;;;;8.90;4.82;;;;;;;8.87;100.00;101299.81;6601899;27;34388;-87
2022/10/10 06:47:55;;;;;;;12.52;5.35;;;;;;;8.98;100.00;101309.19;6621546;27;34037;-88
2022/10/10 06:51:03;;;;;;;7.70;4.53;;;;;;;9.21;100.00;101310.34;6612608;27;33936;-88
2022/10/10 06:54:06;;;;;;;9.80;5.37;;;;;;;9.37;100.00;101306.34;6605578;27;34885;-86
2022/10/10 06:57:09;;;;;;;12.07;5.15;;;;;;;9.39;100.00;101309.78;6585981;27;34330;-87
2022/10/10 07:00:13;;;;;;;8.40;5.07;;;;;;;9.63;100.00;101309.09;6605645;27;34830;-86
2022/10/10 07:03:16;;;;;;;6.55;4.82;;;;;;;9.91;99.46;101318.84;6606051;27;34159;-87
2022/10/10 07:06:19;;;;;;;6.35;4.53;;;;;;;9.94;97.60;101316.06;6606455;27;34176;-87
2022/10/10 07:09:21;;;;;;;11.35;5.20;;;;;;;10.30;95.62;101309.62;6607953;27;33973;-87
2022/10/10 07:12:24;;;;;;;11.50;5.03;;;;;;;10.59;94.41;101302.47;6617149;27;33769;-87
2022/10/10 07:15:30;;;;;;;6.82;4.30;;;;;;;10.89;93.92;101305.84;6610147;27;34409;-88
2022/10/10 07:18:35;;;;;;;4.40;3.47;;;;;;;11.27;87.00;101309.78;6587371;27;33920;-87
2022/10/10 07:21:40;;;;;;;9.55;4.05;;;;;;;11.28;85.45;101314.19;6587381;27;33506;-89
2022/10/10 07:24:43;;;;;;;6.20;3.60;;;;;;;11.83;80.38;101305.81;6606508;27;33944;-88
2022/10/10 07:27:45;;;;;;;5.60;3.75;;;;;;;13.04;73.06;101307.03;6586611;27;33154;-86
2022/10/10 07:30:48;;;;;;;5.30;3.22;;;;;;;14.38;65.50;101298.88;6606587;27;33586;-88
2022/10/10 07:33:50;;;;;;;7.00;3.30;;;;;;;17.54;55.55;101296.12;6608791;27;34287;-87
2022/10/10 07:36:53;;;;;;;5.47;3.08;;;;;;;20.99;46.60;101296.88;6611029;27;34668;-87
2022/10/10 07:39:56;;;;;;;5.55;3.35;;;;;;;23.42;38.42;101300.97;6610683;26;33952;-88
2022/10/10 07:43:00;;;;;;;5.32;3.10;;;;;;;25.10;33.27;101303.59;6605530;26;34524;-89
2022/10/10 07:46:03;;;;;;;4.60;3.05;;;;;;;27.04;30.35;101308.63;6609923;26;34282;-89
2022/10/10 07:49:13;;;;;;;4.97;3.10;;;;;;;28.78;26.96;101296.25;6592033;27;32661;-89
2022/10/10 07:52:15;;;;;;;5.78;3.10;;;;;;;30.11;25.40;101290.97;6610384;27;34262;-89
2022/10/10 07:55:18;;;;;;;4.07;2.95;;;;;;;30.62;23.22;101289.47;6615673;26;34898;-91
2022/10/10 07:58:20;;;;;;;6.57;2.92;;;;;;;31.18;23.31;101296.38;6614123;27;35424;-90
2022/10/10 08:01:24;;;;;;;5.80;3.20;;;;;;;30.50;24.49;101297.31;6609684;27;35192;-92
2022/10/10 08:04:27;;;;;;;6.25;2.80;;;;;;;27.47;27.29;101301.47;6606750;27;34551;-88
2022/10/10 08:07:30;;;;;;;7.50;3.10;;;;;;;28.99;25.97;101292.13;6607316;27;33577;-87
2022/10/10 08:10:32;;;;;;;3.67;2.60;;;;;;;29.22;24.91;101300.41;6619776;26;34453;-88
2022/10/10 08:13:37;;;;;;;7.15;3.03;;;;;;;29.25;24.98;101283.63;6589179;27;33311;-87
2022/10/10 08:16:39;;;;;;;8.00;2.97;;;;;;;26.08;28.43;101288.53;6586532;27;32479;-87
2022/10/10 08:19:42;;;;;;;3.83;2.67;;;;;;;24.70;31.09;101289.28;6606524;27;33983;-87
2022/10/10 08:22:44;;;;;;;6.60;2.80;;;;;;;24.69;30.88;101299.28;6606230;27;34050;-87
2022/10/10 08:25:47;;;;;;;4.10;2.67;;;;;;;26.35;29.25;101286.75;6611821;27;33900;-87
2022/10/10 08:28:50;;;;;;;12.30;3.20;;;;;;;28.97;26.13;101280.53;6621258;27;34906;-87
2022/10/10 08:31:52;;;;;;;4.93;2.60;;;;;;;28.78;25.47;101275.28;6605717;27;34066;-86
2022/10/10 08:34:56;;;;;;;9.20;2.65;;;;;;;26.93;26.84;101281.69;6605248;27;34117;-85
2022/10/10 08:37:58;;;;;;;6.82;2.90;;;;;;;23.69;32.14;101270.50;6606621;27;34324;-86
2022/10/10 08:41:09;;;;;;;5.78;3.20;;;;;;;21.30;37.25;101266.56;6605142;26;34011;-86
2022/10/10 08:44:21;;;;;;;4.03;2.60;;;;;;;20.76;39.43;101267.16;6606798;27;34978;-86
2022/10/10 08:47:28;;;;;;;5.40;2.85;;;;;;;20.25;39.21;101263.03;6619443;27;35321;-86
2022/10/10 08:50:39;;;;;;;7.70;3.20;;;;;;;19.55;41.91;101257.47;6612687;27;34900;-85
2022/10/10 08:53:47;;;;;;;11.10;3.22;;;;;;;18.88;45.08;101255.00;6604779;27;34134;-85
2022/10/10 08:56:49;;;;;;;3.62;2.78;;;;;;;18.36;45.61;101256.81;6603861;27;35225;-85
2022/10/10 08:59:58;;;;;;;4.90;2.33;;;;;;;17.80;43.54;101256.00;6604456;27;33569;-85
2022/10/10 09:03:00;;;;;;;3.17;2.20;;;;;;;17.08;44.57;101254.37;6603886;27;34304;-84
2022/10/10 09:06:18;;;;;;;5.90;2.25;;;;;;;17.09;45.01;101245.34;6584914;27;32678;-85
2022/10/10 09:09:39;;;;;;;3.42;2.00;;;;;;;16.98;45.89;101246.00;6606408;27;34403;-86
2022/10/10 09:12:58;;;;;;;5.55;2.20;;;;;;;17.00;44.28;101241.41;6606547;27;33999;-85
2022/10/10 09:16:22;;;;;;;3.08;2.00;;;;;;;17.10;44.80;101239.91;6605763;27;34168;-89
2022/10/10 09:20:02;;;;;;;4.30;2.10;;;;;;;17.32;43.32;101240.34;6604936;27;34144;-86
2022/10/10 09:23:18;;;;;;;5.65;1.92;;;;;;;17.20;42.64;101232.12;6587071;27;32838;-85
2022/10/10 09:26:27;;;;;;;3.17;1.92;;;;;;;17.17;42.39;101232.34;6606403;27;34745;-86
2022/10/10 09:29:41;;;;;;;2.97;2.00;;;;;;;16.84;43.90;101236.16;6587680;27;33404;-85
2022/10/10 09:33:00;;;;;;;2.42;2.00;;;;;;;17.04;42.82;101234.09;6605697;27;34053;-85
2022/10/10 09:36:11;;;;;;;3.97;1.92;;;;;;;17.61;42.10;101232.22;6605876;27;34560;-86
2022/10/10 09:39:33;;;;;;;4.40;1.95;;;;;;;17.54;41.64;101228.25;6585566;27;34255;-86
2022/10/10 09:42:38;;;;;;;3.75;1.73;;;;;;;17.78;41.75;101225.75;6608766;27;35118;-86
2022/10/10 09:45:47;;;;;;;4.95;2.05;;;;;;;18.03;40.16;101226.75;6607289;27;34149;-86
2022/10/10 09:48:51;;;;;;;6.20;1.95;;;;;;;18.31;40.66;101225.75;6605943;27;34374;-90
2022/10/10 09:51:54;;;;;;;4.15;2.10;;;;;;;18.03;39.39;101219.59;6589969;27;33969;-90
2022/10/10 09:55:01;;;;;;;3.35;1.92;;;;;;;18.52;41.77;101217.19;6608629;27;34847;-86
2022/10/10 09:58:11;;;;;;;2.00;1.90;;;;;;;19.37;40.76;101217.50;6605624;27;33977;-86
2022/10/10 10:01:23;;;;;;;3.33;2.33;;;;;;;19.58;37.11;101224.94;6586400;27;33610;-86
2022/10/10 10:04:31;;;;;;;2.25;1.73;;;;;;;19.22;35.88;101227.53;6606647;27;34738;-86
2022/10/10 10:07:35;;;;;;;2.37;1.90;;;;;;;19.11;37.08;101218.41;6586871;27;33303;-86
2022/10/10 10:10:38;;;;;;;5.12;2.35;;;;;;;19.62;35.52;101216.50;6605647;27;33683;-86
2022/10/10 10:13:40;;;;;;;2.87;2.00;;;;;;;;;;6608452;27;34812;-86
2022/10/10 10:16:43;;;;;;;2.60;2.00;;;;;;;19.67;36.67;101208.94;6605552;27;34922;-86
2022/10/10 10:19:46;;;;;;;4.50;2.10;;;;;;;19.97;37.10;101209.47;6605624;27;34630;-86
2022/10/10 10:22:50;;;;;;;2.72;2.10;;;;;;;20.67;35.99;101204.06;6606092;27;33608;-86
2022/10/10 10:26:00;;;;;;;6.95;2.00;;;;;;;20.55;35.84;101197.81;6606929;27;34770;-85
2022/10/10 10:29:04;;;;;;;2.62;1.95;;;;;;;21.42;34.80;101192.69;6606226;27;34641;-85
2022/10/10 10:32:21;;;;;;;5.87;2.20;;;;;;;23.75;31.16;101190.56;6605541;27;34129;-85
2022/10/10 10:35:32;;;;;;;5.00;2.00;;;;;;;24.89;28.78;101198.88;6585199;27;32658;-85
2022/10/10 10:39:08;;;;;;;5.55;2.00;;;;;;;23.49;30.94;101198.38;6605305;27;33798;-86
2022/10/10 10:42:46;;;;;;;2.85;2.30;;;;;;;21.62;32.73;101177.53;6606831;26;33941;-84
2022/10/10 10:46:17;;;;;;;4.03;2.25;;;;;;;21.66;33.51;101175.44;6530626;27;34109;-89
2022/10/10 10:49:51;;;;;;;3.12;2.00;;;;;;;20.62;36.11;101175.75;6606675;27;34240;-84
2022/10/10 10:53:15;;;;;;;3.75;2.10;;;;;;;20.32;35.99;101168.16;6607753;27;34317;-86
2022/10/10 10:56:45;;;;;;;5.30;1.90;;;;;;;20.98;34.43;101155.78;6599168;27;33079;-86
2022/10/10 10:59:53;;;;;;;3.70;2.17;;;;;;;23.74;29.30;101152.78;6604180;27;34181;-85
2022/10/10 11:03:25;;;;;;;5.35;1.80;;;;;;;25.33;26.88;101148.44;6585797;27;34573;-84
2022/10/10 11:06:57;;;;;;;2.92;1.80;;;;;;;24.21;27.51;101154.72;6589678;27;32539;-85
2022/10/10 11:10:36;;;;;;;2.83;2.00;;;;;;;21.87;31.79;101158.44;6605745;27;33610;-84
2022/10/10 11:13:43;;;;;;;4.85;1.98;;;;;;;21.28;33.58;101153.38;6608115;27;34024;-85
2022/10/10 11:16:56;;;;;;;2.12;1.70;;;;;;;19.98;34.10;101140.31;6617641;27;33977;-84
2022/10/10 11:20:05;;;;;;;2.47;1.73;;;;;;;20.10;33.97;101136.66;6588911;27;32668;-86
2022/10/10 11:23:18;;;;;;;6.30;2.00;;;;;;;21.39;32.42;101137.16;6590167;27;34067;-84
2022/10/10 11:26:28;;;;;;;2.65;1.90;;;;;;;22.36;31.58;101137.09;6608330;27;34111;-84
2022/10/10 11:29:46;;;;;;;5.13;1.77;;;;;;;22.03;32.07;101128.25;6605222;27;33924;-84
2022/10/10 11:32:54;;;;;;;6.95;1.92;;;;;;;20.97;33.56;101132.47;6606056;27;35268;-84
2022/10/10 11:35:59;;;;;;;4.25;1.90;;;;;;;20.45;33.05;101127.63;6617852;27;33996;-85
2022/10/10 11:39:18;;;;;;;4.85;2.12;;;;;;;20.27;34.35;101118.31;6613679;27;34219;-86
2022/10/10 11:42:31;;;;;;;2.58;1.90;;;;;;;20.17;35.17;101115.50;6604816;27;35387;-84
2022/10/10 11:45:43;;;;;;;2.80;1.83;;;;;;;20.13;34.43;101108.63;6584902;27;33606;-89
2022/10/10 11:49:10;;;;;;;2.75;1.98;;;;;;;20.27;34.42;101104.84;6605523;27;34063;-85
2022/10/10 11:52:24;;;;;;;3.28;1.90;;;;;;;20.31;35.05;101093.69;6603404;27;33894;-85
2022/10/10 11:55:50;;;;;;;2.28;1.87;;;;;;;20.05;34.76;101101.16;6605312;27;34637;-84
2022/10/10 11:58:59;;;;;;;3.22;1.77;;;;;;;19.83;36.40;101099.25;6606154;27;33862;-84
2022/10/10 12:02:16;;;;;;;4.40;2.03;;;;;;;19.74;35.61;101095.44;6584602;27;33266;-86
2022/10/10 12:05:26;;;;;;;2.30;1.75;;;;;;;19.38;36.58;101099.00;6583078;27;33581;-84
2022/10/10 12:09:12;;;;;;;1.98;1.85;;;;;;;19.38;37.64;101093.63;6586433;27;33582;-83
2022/10/10 12:12:27;;;;;;;2.67;2.12;;;;;;;19.18;36.47;101081.69;6570168;27;34834;-84
2022/10/10 12:15:33;;;;;;;2.97;1.80;;;;;;;18.72;37.15;101077.87;6604923;27;33835;-88
2022/10/10 12:18:49;;;;;;;2.95;1.77;;;;;;;18.80;37.41;101066.56;6586680;27;33536;-83
2022/10/10 12:21:56;;;;;;;2.50;1.80;;;;;;;18.82;37.21;101065.44;6607408;27;34479;-84
2022/10/10 12:25:05;;;;;;;2.50;1.90;;;;;;;18.55;37.18;101063.81;6587985;27;32422;-84
2022/10/10 12:28:12;;;;;;;5.00;2.40;;;;;;;18.67;37.00;101066.59;6585651;27;32938;-84
2022/10/10 12:31:15;;;;;;;1.70;1.60;;;;;;;18.19;38.01;101068.19;6603803;27;33600;-85
2022/10/10 12:34:39;;;;;;;2.50;1.45;;;;;;;18.18;36.86;101061.09;6604527;27;35002;-84
2022/10/10 12:38:04;;;;;;;3.62;1.58;;;;;;;18.35;37.65;101061.75;6606249;27;34364;-83
2022/10/10 12:41:13;;;;;;;1.62;1.52;;;;;;;18.56;36.86;101060.16;6585904;26;33125;-84
2022/10/10 12:44:24;;;;;;;4.93;2.03;;;;;;;18.74;36.38;101051.72;6608389;27;34013;-85
2022/10/10 12:47:45;;;;;;;1.92;1.50;;;;;;;18.83;35.81;101056.44;6620797;27;33784;-84
2022/10/10 12:51:18;;;;;;;2.70;1.55;;;;;;;18.71;34.34;101049.28;6606265;27;34107;-85
2022/10/10 12:54:26;;;;;;;2.08;1.58;;;;;;;19.02;35.54;101049.69;6606450;27;34196;-89
2022/10/10 12:57:34;;;;;;;3.37;1.80;;;;;;;18.94;35.00;101047.56;6589531;27;33624;-85
2022/10/10 13:00:42;;;;;;;2.33;1.58;;;;;;;18.58;35.99;101052.88;6585992;27;34163;-85
2022/10/10 13:03:46;;;;;;;1.65;1.48;;;;;;;18.58;37.52;101052.00;6606098;27;34917;-85
2022/10/10 13:06:54;;;;;;;2.30;1.87;;;;;;;18.78;37.42;101052.34;6605499;27;33882;-85
2022/10/10 13:10:07;;;;;;;2.33;1.75;;;;;;;18.99;36.11;101050.78;6587527;27;32446;-86
2022/10/10 13:13:19;;;;;;;2.87;1.70;;;;;;;19.17;38.83;101042.31;6605415;27;34284;-86
2022/10/10 13:16:25;;;;;;;1.70;1.60;;;;;;;18.90;34.20;101042.53;6605757;27;34221;-87
2022/10/10 13:19:40;;;;;;;9.77;1.65;;;;;;;19.00;35.37;101040.84;6605755;27;34458;-86
2022/10/10 13:22:42;;;;;;;1.48;1.30;;;;;;;19.10;33.65;101035.66;6604653;27;34460;-85
2022/10/10 13:25:48;;;;;;;2.80;1.80;;;;;;;19.02;32.14;101032.69;6607561;27;33542;-85
2022/10/10 13:28:55;;;;;;;1.37;1.20;;;;;;;18.86;32.30;101032.00;6605636;27;34183;-86
2022/10/10 13:32:05;;;;;;;5.35;1.80;;;;;;;18.81;32.24;101025.28;6607914;27;34358;-86
2022/10/10 13:35:22;;;;;;;2.92;1.80;;;;;;;18.72;33.24;101021.44;6585716;27;33718;-86
2022/10/10 13:38:25;;;;;;;2.00;1.70;;;;;;;18.88;34.45;101017.59;6605943;27;34267;-86
2022/10/10 13:41:28;;;;;;;4.07;1.60;;;;;;;18.65;33.38;101022.88;6604879;27;34530;-86
2022/10/10 13:44:45;;;;;;;2.42;1.75;;;;;;;18.57;34.32;101018.88;6605528;27;34341;-87
2022/10/10 13:47:56;;;;;;;3.83;1.60;;;;;;;18.57;34.91;101018.06;6606207;27;34654;-85
2022/10/10 13:51:09;;;;;;;;;;;;;;;18.61;37.25;101024.06;6606206;27;33786;-88
2022/10/10 13:54:44;;;;;;;4.22;1.70;;;;;;;18.62;35.75;101010.50;6605347;27;34896;-86
2022/10/10 13:57:46;;;;;;;4.50;1.90;;;;;;;18.57;36.73;101007.31;6605492;27;34218;-86
2022/10/10 14:00:58;;;;;;;4.87;1.80;;;;;;;18.54;35.60;100992.25;6605331;27;33505;-86
2022/10/10 14:04:22;;;;;;;3.42;1.85;;;;;;;18.52;36.93;100998.72;6608159;27;33958;-86
2022/10/10 14:07:27;;;;;;;2.90;2.20;;;;;;;18.18;36.97;101002.91;6619374;27;34347;-85
2022/10/10 14:10:34;;;;;;;3.60;1.80;;;;;;;18.11;37.78;100998.09;6586584;27;33589;-85
2022/10/10 14:13:37;;;;;;;2.87;1.85;;;;;;;18.04;37.23;100994.94;6590474;27;32589;-85
2022/10/10 14:16:40;;;;;;;4.05;1.80;;;;;;;17.89;38.03;100996.87;6607526;27;34136;-85
2022/10/10 14:19:44;;;;;;;2.83;1.85;;;;;;;17.83;38.28;101008.06;6587150;27;32782;-86
2022/10/10 14:22:47;;;;;;;2.12;1.85;;;;;;;17.63;42.38;100999.59;6610233;27;35946;-85
2022/10/10 14:25:49;;;;;;;4.00;1.90;;;;;;;17.70;38.63;100990.13;6597916;27;32458;-85
2022/10/10 14:28:52;;;;;;;6.97;2.05;;;;;;;17.51;41.98;100983.38;6617637;27;34469;-85
2022/10/10 14:31:55;;;;;;;4.43;2.15;;;;;;;17.44;40.30;100982.09;6585893;27;34333;-85
2022/10/10 14:34:58;;;;;;;6.93;2.10;;;;;;;17.46;38.76;100980.16;6586294;27;32905;-85
2022/10/10 14:38:00;;;;;;;3.08;1.83;;;;;;;17.45;39.57;100973.06;6612547;27;33879;-85
2022/10/10 14:41:03;;;;;;;3.80;1.85;;;;;;;17.53;39.24;100972.56;6609971;26;34390;-85
2022/10/10 14:44:07;;;;;;;5.53;2.42;;;;;;;17.32;40.03;100975.78;6605690;27;34901;-85
2022/10/10 14:47:18;;;;;;;2.67;1.55;;;;;;;17.31;41.39;100976.75;6606159;27;34673;-86
2022/10/10 14:50:29;;;;;;;3.60;1.83;;;;;;;17.08;40.18;100968.44;6586284;27;32529;-85
2022/10/10 14:53:32;;;;;;;3.37;2.00;;;;;;;17.11;40.95;100975.41;6568900;27;33693;-86
2022/10/10 14:56:35;;;;;;;3.33;2.10;;;;;;;17.03;43.74;100975.06;6585693;27;32790;-86
2022/10/10 14:59:57;;;;;;;3.85;1.90;;;;;;;16.83;46.28;100970.06;6589979;27;32608;-86
2022/10/10 15:03:00;;;;;;;7.62;2.50;;;;;;;16.70;42.84;100967.31;6614907;27;34387;-86
2022/10/10 15:06:03;;;;;;;7.12;2.17;;;;;;;16.79;42.81;100959.66;6595028;27;32578;-86
2022/10/10 15:09:06;;;;;;;3.83;2.25;;;;;;;16.69;43.52;100967.41;6608747;27;33845;-86
2022/10/10 15:12:30;;;;;;;4.43;2.30;;;;;;;16.67;44.14;100967.53;6609637;27;34159;-86
2022/10/10 15:15:33;;;;;;;2.37;2.10;;;;;;;16.53;44.60;100963.09;6607513;27;34106;-86
2022/10/10 15:18:35;;;;;;;5.97;2.42;;;;;;;16.53;49.73;100970.25;6605917;27;33955;-86
2022/10/10 15:21:55;;;;;;;2.70;2.37;;;;;;;16.50;45.58;100960.59;6605465;27;33939;-86
2022/10/10 15:24:58;;;;;;;5.28;2.55;;;;;;;16.34;46.21;100960.75;6587218;27;32537;-86
2022/10/10 15:28:02;;;;;;;5.55;2.92;;;;;;;16.31;45.77;100966.31;6605714;27;33937;-85
2022/10/10 15:31:05;;;;;;;4.43;2.67;;;;;;;16.18;47.62;100960.88;6586461;27;32668;-86
2022/10/10 15:34:07;;;;;;;9.32;2.50;;;;;;;16.10;49.44;100960.53;6586560;27;33195;-86
2022/10/10 15:37:10;;;;;;;4.75;3.12;;;;;;;16.01;49.19;100960.16;6588427;27;34410;-86
2022/10/10 15:40:18;;;;;;;6.53;2.80;;;;;;;16.01;46.98;100949.47;6605588;27;34265;-86
2022/10/10 15:43:21;;;;;;;4.57;3.30;;;;;;;16.06;47.77;100953.62;6606359;27;33984;-86
